Time;durP1;ratioP1;P1;durP2;ratioP2;P2;SDS_P1;SDS_P2;PMS_P1;PMS_P2;Temp;Humidity;BMP_temperature;BMP_pressure;BME280_temperature;BME280_humidity;BME280_pressure;Samples;Min_cycle;Max_cycle;Signal;HPM_P1;HPM_P2
2021/03/19 00:01:29;;;;;;;10.27;6.22;;;6.50;91.80;;;;;;5048604;28;20118;-74
2021/03/19 00:03:55;;;;;;;9.13;6.20;;;6.40;91.90;;;;;;5053637;28;20369;-74
2021/03/19 00:06:20;;;;;;;9.43;5.93;;;6.40;92.00;;;;;;5064891;28;20096;-73
2021/03/19 00:08:46;;;;;;;10.27;6.18;;;6.30;92.20;;;;;;5060306;28;20365;-73
2021/03/19 00:11:12;;;;;;;11.43;6.80;;;6.30;92.20;;;;;;5061958;28;20045;-73
2021/03/19 00:13:38;;;;;;;9.60;5.57;;;6.30;92.40;;;;;;5073820;28;20107;-73
2021/03/19 00:16:04;;;;;;;10.57;6.25;;;6.30;92.40;;;;;;5063627;28;20033;-73
2021/03/19 00:18:30;;;;;;;11.60;7.10;;;6.30;92.40;;;;;;5058140;28;20121;-74
2021/03/19 00:20:55;;;;;;;11.20;7.55;;;6.30;92.50;;;;;;5058681;28;20606;-73
2021/03/19 00:23:21;;;;;;;12.88;9.15;;;6.20;92.60;;;;;;5049047;28;20029;-73
2021/03/19 00:25:46;;;;;;;13.75;9.15;;;6.10;92.50;;;;;;5052765;28;20429;-73
2021/03/19 00:28:15;;;;;;;13.10;9.45;;;6.10;92.50;;;;;;5052804;28;20032;-72
2021/03/19 00:30:43;;;;;;;12.75;8.32;;;6.00;92.40;;;;;;5059039;28;20038;-72
2021/03/19 00:33:09;;;;;;;19.67;9.70;;;5.90;92.60;;;;;;5062169;28;20017;-72
2021/03/19 00:35:35;;;;;;;14.57;9.60;;;5.90;92.70;;;;;;5063835;28;20040;-77
2021/03/19 00:38:01;;;;;;;14.35;10.07;;;5.80;92.80;;;;;;5064387;28;20432;-72
2021/03/19 00:40:28;;;;;;;14.60;9.35;;;5.80;92.80;;;;;;5052272;28;20073;-71
2021/03/19 00:42:53;;;;;;;16.80;9.73;;;5.70;92.90;;;;;;5052199;28;20112;-71
2021/03/19 00:45:19;;;;;;;17.40;10.82;;;5.70;92.90;;;;;;5056815;28;20025;-70
2021/03/19 00:47:44;;;;;;;28.38;17.73;;;5.80;92.90;;;;;;5067186;28;20044;-72
2021/03/19 00:50:14;;;;;;;27.20;16.80;;;5.70;93.10;;;;;;5051085;28;20458;-71
2021/03/19 00:52:40;;;;;;;24.52;14.88;;;5.70;93.20;;;;;;5048807;28;20031;-71
2021/03/19 00:55:08;;;;;;;28.15;16.83;;;5.60;93.20;;;;;;5037919;28;20040;-70
2021/03/19 00:57:34;;;;;;;25.23;15.75;;;5.70;93.20;;;;;;5069174;28;20052;-72
2021/03/19 01:00:00;;;;;;;27.13;16.65;;;5.60;93.30;;;;;;5051946;28;20497;-71
2021/03/19 01:02:25;;;;;;;24.67;16.10;;;5.60;93.60;;;;;;5053388;28;20064;-71
2021/03/19 01:04:55;;;;;;;25.30;15.27;;;5.50;93.70;;;;;;5050853;28;20029;-71
2021/03/19 01:07:21;;;;;;;22.80;13.20;;;5.50;93.40;;;;;;5052104;28;20480;-71
2021/03/19 01:09:46;;;;;;;29.02;15.88;;;5.40;93.70;;;;;;5033749;28;20025;-72
2021/03/19 01:12:12;;;;;;;26.33;15.55;;;5.30;93.60;;;;;;5052395;28;20155;-72
2021/03/19 01:14:37;;;;;;;22.35;14.32;;;5.30;93.60;;;;;;5052332;28;20043;-72
2021/03/19 01:17:03;;;;;;;21.40;12.90;;;5.30;93.80;;;;;;5051405;28;20024;-72
2021/03/19 01:19:29;;;;;;;23.67;14.00;;;5.20;94.00;;;;;;5053045;28;20048;-71
2021/03/19 01:21:54;;;;;;;19.88;12.55;;;5.10;94.60;;;;;;5039912;28;20041;-71
2021/03/19 01:24:20;;;;;;;19.27;12.50;;;5.00;94.30;;;;;;5032573;28;20025;-71
2021/03/19 01:26:45;;;;;;;20.45;12.18;;;5.00;94.30;;;;;;5054085;28;20021;-73
2021/03/19 01:29:11;;;;;;;20.45;11.70;;;4.90;94.30;;;;;;5052191;28;20424;-73
2021/03/19 01:31:36;;;;;;;23.30;13.18;;;4.90;94.10;;;;;;5053585;28;20025;-74
2021/03/19 01:34:02;;;;;;;24.95;12.25;;;4.90;94.10;;;;;;5052275;28;20111;-74
2021/03/19 01:36:28;;;;;;;21.85;12.65;;;4.90;94.10;;;;;;5040041;28;20075;-74
2021/03/19 01:38:54;;;;;;;22.88;11.90;;;4.90;94.10;;;;;;5036216;28;20470;-74
2021/03/19 01:41:20;;;;;;;21.17;11.07;;;4.90;94.10;;;;;;5051035;28;20037;-73
2021/03/19 01:43:50;;;;;;;22.48;12.68;;;4.80;94.10;;;;;;5058011;28;20486;-74
2021/03/19 01:46:52;;;;;;;21.17;11.65;;;4.70;94.00;;;;;;5063367;28;20039;-75
2021/03/19 01:49:57;;;;;;;16.75;10.70;;;4.70;94.00;;;;;;5062054;28;20040;-74
2021/03/19 01:53:00;;;;;;;17.48;10.55;;;4.70;94.00;;;;;;5032099;28;20041;-74
2021/03/19 01:56:02;;;;;;;19.60;11.38;;;4.60;94.10;;;;;;5045605;28;20036;-74
2021/03/19 01:59:05;;;;;;;16.65;9.40;;;4.60;94.20;;;;;;5066655;28;20136;-74
2021/03/19 02:02:10;;;;;;;20.65;10.18;;;4.50;94.40;;;;;;5049399;28;20048;-74
2021/03/19 02:05:13;;;;;;;18.05;10.48;;;4.40;94.40;;;;;;5051010;28;20069;-74
2021/03/19 02:08:16;;;;;;;18.83;10.25;;;4.40;94.80;;;;;;5047182;28;20044;-74
2021/03/19 02:11:19;;;;;;;19.13;9.48;;;4.30;94.80;;;;;;5056925;28;20151;-74
2021/03/19 02:14:22;;;;;;;27.75;13.07;;;4.30;94.50;;;;;;5031944;28;20040;-74
2021/03/19 02:17:25;;;;;;;23.33;11.45;;;4.30;94.60;;;;;;5041691;28;20359;-74
2021/03/19 02:20:29;;;;;;;24.60;11.40;;;4.20;94.50;;;;;;5031075;28;20040;-77
2021/03/19 02:23:32;;;;;;;24.00;11.88;;;4.20;94.50;;;;;;5048680;28;20079;-74
2021/03/19 02:26:35;;;;;;;21.83;10.90;;;4.20;94.40;;;;;;5049085;28;20028;-75
2021/03/19 02:29:38;;;;;;;29.80;12.80;;;4.30;94.30;;;;;;5063544;28;20029;-74
2021/03/19 02:32:13;;;;;;;26.83;12.98;;;4.30;94.10;;;;;;5057235;28;20025;-75
2021/03/19 02:34:43;;;;;;;32.05;14.05;;;4.30;94.10;;;;;;5051112;28;20063;-75
2021/03/19 02:37:13;;;;;;;30.52;13.55;;;4.30;94.10;;;;;;5061037;28;20028;-74
2021/03/19 02:39:39;;;;;;;28.60;13.18;;;4.30;94.20;;;;;;5050574;28;20091;-74
2021/03/19 02:42:06;;;;;;;32.33;14.93;;;4.30;94.20;;;;;;5061815;28;20021;-74
2021/03/19 02:44:32;;;;;;;38.88;15.38;;;4.30;94.20;;;;;;5051657;28;20036;-74
2021/03/19 02:46:57;;;;;;;29.63;13.02;;;4.30;94.20;;;;;;5049385;28;20025;-74
2021/03/19 02:49:22;;;;;;;32.65;15.55;;;4.30;94.20;;;;;;5046311;28;20083;-77
2021/03/19 02:51:48;;;;;;;38.05;15.93;;;4.30;94.20;;;;;;5044009;28;20028;-73
2021/03/19 02:54:13;;;;;;;44.58;16.35;;;4.30;94.20;;;;;;5062539;28;20020;-73
2021/03/19 02:56:39;;;;;;;40.95;16.70;;;4.20;94.40;;;;;;5045166;28;20091;-72
2021/03/19 02:59:05;;;;;;;37.88;15.07;;;4.20;94.30;;;;;;5030749;28;20418;-72
2021/03/19 03:01:30;;;;;;;43.65;16.88;;;4.20;94.20;;;;;;5050159;28;20040;-71
2021/03/19 03:03:56;;;;;;;41.83;15.18;;;4.20;94.20;;;;;;5050758;28;20021;-71
2021/03/19 03:06:33;;;;;;;39.53;15.40;;;4.30;94.20;;;;;;5049681;28;20457;-72
2021/03/19 03:08:59;;;;;;;42.72;16.10;;;4.30;94.20;;;;;;5050474;28;20040;-74
2021/03/19 03:11:24;;;;;;;32.60;15.20;;;4.30;94.20;;;;;;5049536;28;20033;-71
2021/03/19 03:13:50;;;;;;;38.15;15.77;;;4.20;94.40;;;;;;5052632;28;20063;-71
2021/03/19 03:16:15;;;;;;;41.13;17.35;;;4.20;94.60;;;;;;5046625;28;20018;-71
2021/03/19 03:18:41;;;;;;;44.38;17.80;;;4.20;94.70;;;;;;5052841;28;20029;-71
2021/03/19 03:21:06;;;;;;;38.95;16.27;;;4.10;94.80;;;;;;5038643;28;20509;-71
2021/03/19 03:23:32;;;;;;;35.75;16.20;;;4.10;94.80;;;;;;5054351;28;20043;-73
2021/03/19 03:25:57;;;;;;;51.38;14.75;;;4.10;94.80;;;;;;5053530;28;20025;-73
2021/03/19 03:28:25;;;;;;;35.92;16.85;;;4.10;94.90;;;;;;5054582;28;20108;-73
2021/03/19 03:30:54;;;;;;;35.92;14.60;;;4.00;95.00;;;;;;5054860;28;20079;-73
2021/03/19 03:33:20;;;;;;;40.20;17.73;;;4.00;94.90;;;;;;5054306;28;20139;-73
2021/03/19 03:35:46;;;;;;;43.47;17.95;;;3.90;95.10;;;;;;5066545;28;20547;-73
2021/03/19 03:38:16;;;;;;;42.65;17.05;;;3.90;95.00;;;;;;5074223;28;20036;-73
2021/03/19 03:40:49;;;;;;;36.38;16.52;;;3.90;94.90;;;;;;5058370;28;20041;-73
2021/03/19 03:43:15;;;;;;;45.03;18.30;;;3.90;95.00;;;;;;5054384;28;20025;-74
2021/03/19 03:45:42;;;;;;;38.70;18.73;;;3.90;95.10;;;;;;5052463;28;20025;-74
2021/03/19 03:48:09;;;;;;;46.53;20.13;;;3.80;95.50;;;;;;5069117;28;20033;-73
2021/03/19 03:50:35;;;;;;;36.67;16.85;;;3.80;95.20;;;;;;5053247;28;20516;-73
2021/03/19 03:53:01;;;;;;;43.35;17.77;;;3.80;95.30;;;;;;5051958;28;20029;-73
2021/03/19 03:55:27;;;;;;;35.05;17.65;;;3.80;95.30;;;;;;5055623;28;20028;-74
2021/03/19 03:57:52;;;;;;;45.00;18.80;;;3.70;95.30;;;;;;5073060;28;20037;-73
2021/03/19 04:00:24;;;;;;;50.13;19.20;;;3.70;95.30;;;;;;5052318;28;20048;-72
2021/03/19 04:02:50;;;;;;;46.20;18.40;;;3.70;95.20;;;;;;5054062;28;20024;-73
2021/03/19 04:05:25;;;;;;;41.58;17.10;;;3.70;95.40;;;;;;5051565;28;20369;-73
2021/03/19 04:07:51;;;;;;;;;;;3.70;95.40;;;;;;5054510;28;20057;-73
2021/03/19 04:10:17;;;;;;;46.67;19.15;;;3.60;95.80;;;;;;5052248;28;19947;-73
2021/03/19 04:12:44;;;;;;;44.58;18.42;;;3.60;95.70;;;;;;5052909;28;20029;-73
2021/03/19 04:15:11;;;;;;;48.20;18.80;;;3.50;95.70;;;;;;5066910;28;20094;-73
2021/03/19 04:17:36;;;;;;;45.22;18.73;;;3.40;95.70;;;;;;5073427;28;20062;-73
2021/03/19 04:20:05;;;;;;;43.15;18.67;;;3.40;95.90;;;;;;5048080;28;20025;-73
2021/03/19 04:22:31;;;;;;;46.88;21.65;;;3.40;96.00;;;;;;5052800;28;20025;-71
2021/03/19 04:24:56;;;;;;;46.58;18.52;;;3.30;96.10;;;;;;5057194;28;20445;-72
2021/03/19 04:27:26;;;;;;;44.72;19.17;;;3.30;96.00;;;;;;5073686;28;20081;-72
2021/03/19 04:29:54;;;;;;;46.13;19.42;;;3.30;96.00;;;;;;5070148;28;20024;-72
2021/03/19 04:32:20;;;;;;;50.78;20.67;;;3.20;96.10;;;;;;5060282;28;20043;-72
2021/03/19 04:34:46;;;;;;;54.33;19.55;;;3.20;96.10;;;;;;5057636;28;20028;-72
2021/03/19 04:37:12;;;;;;;50.95;20.15;;;3.20;96.10;;;;;;5057907;28;20037;-72
2021/03/19 04:39:42;;;;;;;56.70;21.95;;;3.20;96.10;;;;;;5052319;28;20025;-72
2021/03/19 04:42:09;;;;;;;51.40;20.83;;;3.10;96.30;;;;;;5052004;28;20148;-72
2021/03/19 04:44:38;;;;;;;52.25;23.40;;;3.10;96.30;;;;;;5050998;28;20044;-72
2021/03/19 04:47:05;;;;;;;55.22;21.45;;;3.00;96.50;;;;;;5056226;28;20083;-72
2021/03/19 04:49:31;;;;;;;54.22;21.38;;;3.00;96.70;;;;;;5061610;28;20461;-72
2021/03/19 04:51:58;;;;;;;56.67;23.20;;;2.90;96.80;;;;;;5072737;28;20028;-72
2021/03/19 04:54:23;;;;;;;48.15;20.42;;;2.80;97.00;;;;;;5066576;28;20032;-72
2021/03/19 04:56:49;;;;;;;51.95;21.77;;;2.60;97.00;;;;;;5053065;28;20037;-72
2021/03/19 04:59:15;;;;;;;49.47;19.70;;;2.60;97.00;;;;;;5050363;28;20559;-72
2021/03/19 05:02:00;;;;;;;47.45;23.05;;;2.60;97.00;;;;;;5072942;28;20024;-73
2021/03/19 05:04:27;;;;;;;;;;;2.50;96.80;;;;;;5065867;28;20021;-72
2021/03/19 05:07:00;;;;;;;53.53;23.17;;;2.60;97.20;;;;;;5052899;28;19915;-72
2021/03/19 05:09:27;;;;;;;55.28;22.85;;;2.60;97.10;;;;;;5051013;28;20025;-71
2021/03/19 05:11:53;;;;;;;46.05;21.88;;;2.50;97.00;;;;;;5071404;28;20090;-72
2021/03/19 05:14:19;;;;;;;50.03;23.15;;;2.40;97.10;;;;;;5065325;28;20736;-71
2021/03/19 05:16:44;;;;;;;46.42;22.33;;;2.40;97.20;;;;;;5033076;28;20497;-72
2021/03/19 05:19:10;;;;;;;52.67;22.65;;;2.50;96.90;;;;;;5051190;28;20105;-72
2021/03/19 05:21:36;;;;;;;46.63;20.95;;;2.50;97.00;;;;;;5052569;28;20112;-73
2021/03/19 05:24:01;;;;;;;50.55;22.23;;;2.50;96.80;;;;;;5056541;28;20051;-72
2021/03/19 05:26:28;;;;;;;46.28;19.23;;;2.60;97.00;;;;;;5052103;28;20244;-71
2021/03/19 05:28:53;;;;;;;46.97;19.10;;;2.60;96.80;;;;;;5035832;28;20117;-72
2021/03/19 05:31:19;;;;;;;39.83;18.63;;;2.60;96.70;;;;;;5051014;28;20529;-71
2021/03/19 05:33:50;;;;;;;39.90;17.85;;;2.70;96.60;;;;;;5052216;28;20037;-72
2021/03/19 05:36:24;;;;;;;37.72;17.63;;;2.70;96.50;;;;;;5067380;28;20484;-72
2021/03/19 05:38:51;;;;;;;41.08;17.10;;;2.80;96.40;;;;;;5057697;28;20434;-72
2021/03/19 05:41:18;;;;;;;37.58;17.88;;;2.80;96.30;;;;;;5051060;28;20033;-72
2021/03/19 05:43:52;;;;;;;36.17;17.15;;;2.80;96.30;;;;;;5051042;28;20021;-71
2021/03/19 05:46:32;;;;;;;41.85;17.73;;;2.80;96.30;;;;;;5051386;28;20268;-72
2021/03/19 05:49:02;;;;;;;32.67;17.63;;;2.80;96.30;;;;;;5044816;28;20029;-71
2021/03/19 05:51:43;;;;;;;36.58;17.02;;;2.80;96.20;;;;;;5051314;28;20033;-71
2021/03/19 05:54:26;;;;;;;39.08;18.50;;;2.90;96.20;;;;;;5050424;28;20032;-72
2021/03/19 05:57:07;;;;;;;38.03;17.52;;;2.90;96.30;;;;;;5032072;28;20465;-73
2021/03/19 05:59:39;;;;;;;38.42;17.20;;;2.90;96.10;;;;;;5052683;28;20048;-73
2021/03/19 06:02:18;;;;;;;35.15;16.23;;;2.90;96.00;;;;;;5065907;28;20432;-73
2021/03/19 06:04:44;;;;;;;34.08;16.45;;;3.00;96.00;;;;;;5050901;28;20100;-72
2021/03/19 06:07:10;;;;;;;34.22;17.23;;;3.10;96.00;;;;;;5053350;28;20140;-72
2021/03/19 06:09:39;;;;;;;32.40;15.52;;;3.10;95.90;;;;;;5045458;28;20055;-72
2021/03/19 06:12:21;;;;;;;29.40;16.70;;;3.10;95.80;;;;;;5071061;28;20021;-72
2021/03/19 06:14:51;;;;;;;27.63;15.10;;;3.10;95.70;;;;;;5061035;28;20024;-73
2021/03/19 06:17:45;;;;;;;28.75;13.82;;;3.10;95.50;;;;;;5038091;28;20378;-72
2021/03/19 06:20:14;;;;;;;36.90;15.73;;;3.20;95.40;;;;;;5040589;28;20049;-73
2021/03/19 06:22:46;;;;;;;30.90;15.50;;;3.20;95.30;;;;;;5051401;28;20476;-74
2021/03/19 06:25:22;;;;;;;34.90;15.30;;;3.10;95.30;;;;;;5058524;28;20082;-74
2021/03/19 06:27:56;;;;;;;28.25;12.88;;;3.10;95.40;;;;;;5056652;28;20481;-74
2021/03/19 06:30:27;;;;;;;31.77;15.60;;;3.00;95.50;;;;;;5042277;28;20098;-74
2021/03/19 06:33:02;;;;;;;26.20;15.15;;;3.00;95.50;;;;;;5051566;28;20493;-73
2021/03/19 06:35:33;;;;;;;;;;;3.00;95.40;;;;;;5050094;28;20029;-74
2021/03/19 06:38:26;;;;;;;33.85;16.92;;;3.10;95.40;;;;;;5050662;28;20342;-74
2021/03/19 06:40:52;;;;;;;30.45;16.98;;;3.00;95.30;;;;;;5045818;28;20107;-70
2021/03/19 06:43:29;;;;;;;30.02;15.15;;;3.00;95.20;;;;;;5051028;28;20565;-76
2021/03/19 06:46:40;;;;;;;27.70;15.45;;;2.90;95.30;;;;;;5035179;28;20021;-73
2021/03/19 06:49:07;;;;;;;34.28;16.13;;;2.90;95.50;;;;;;5043184;28;20500;-69
2021/03/19 06:51:40;;;;;;;28.92;14.93;;;2.90;95.50;;;;;;5035057;28;20099;-74
2021/03/19 06:54:16;;;;;;;28.65;14.93;;;2.90;95.60;;;;;;5044878;28;20735;-71
2021/03/19 06:57:02;;;;;;;29.60;16.88;;;3.00;95.60;;;;;;5067570;28;20073;-73
2021/03/19 06:59:38;;;;;;;30.40;15.50;;;3.00;95.50;;;;;;5067430;28;20136;-74
2021/03/19 07:02:31;;;;;;;28.77;14.45;;;3.10;95.50;;;;;;5050983;28;20021;-74
2021/03/19 07:05:41;;;;;;;29.30;14.27;;;3.20;95.50;;;;;;5049864;28;20048;-74
2021/03/19 07:08:26;;;;;;;24.70;13.70;;;3.40;95.50;;;;;;5042262;28;20112;-74
2021/03/19 07:11:19;;;;;;;24.45;14.38;;;3.50;95.30;;;;;;5067131;28;20086;-72
2021/03/19 07:14:07;;;;;;;25.50;14.27;;;3.60;95.20;;;;;;5035250;28;20056;-72
2021/03/19 07:17:10;;;;;;;25.40;14.13;;;3.60;95.10;;;;;;5068482;28;20025;-72
2021/03/19 07:19:59;;;;;;;25.85;13.18;;;3.60;94.90;;;;;;5054271;28;20148;-72
2021/03/19 07:22:39;;;;;;;24.83;12.80;;;3.70;94.90;;;;;;5053916;28;20032;-72
2021/03/19 07:25:29;;;;;;;22.92;12.70;;;3.90;94.80;;;;;;5051194;28;20024;-72
2021/03/19 07:28:16;;;;;;;23.42;12.75;;;3.90;94.40;;;;;;5054217;28;20021;-72
2021/03/19 07:31:13;;;;;;;24.55;12.88;;;4.00;94.40;;;;;;5056951;28;20131;-72
2021/03/19 07:34:05;;;;;;;18.58;10.82;;;4.10;94.30;;;;;;5053588;28;20051;-73
2021/03/19 07:36:52;;;;;;;23.05;12.07;;;4.10;94.10;;;;;;5053827;28;20112;-73
2021/03/19 07:39:17;;;;;;;20.42;12.30;;;4.10;93.80;;;;;;5052435;28;20669;-72
2021/03/19 07:42:14;;;;;;;21.70;11.95;;;4.10;93.80;;;;;;5069814;28;20043;-72
2021/03/19 07:45:04;;;;;;;24.17;12.43;;;4.30;93.90;;;;;;5021424;28;20024;-72
2021/03/19 07:47:56;;;;;;;21.08;11.95;;;4.30;93.80;;;;;;5053130;28;20040;-73
2021/03/19 07:50:42;;;;;;;22.30;12.30;;;4.40;93.70;;;;;;5052757;28;20037;-72
2021/03/19 07:53:35;;;;;;;19.85;11.73;;;4.50;93.60;;;;;;5049690;28;20045;-73
2021/03/19 07:56:04;;;;;;;21.50;11.68;;;4.50;93.60;;;;;;5049798;28;20063;-69
2021/03/19 07:58:50;;;;;;;21.95;12.18;;;4.60;93.30;;;;;;5054047;28;20049;-71
2021/03/19 08:01:37;;;;;;;22.27;12.75;;;4.60;92.90;;;;;;5054348;28;20103;-71
2021/03/19 08:04:18;;;;;;;21.10;12.23;;;4.60;93.00;;;;;;5040929;28;20025;-72
2021/03/19 08:06:48;;;;;;;21.45;11.85;;;4.60;93.00;;;;;;5034346;28;20210;-72
2021/03/19 08:09:38;;;;;;;18.92;11.30;;;4.70;93.00;;;;;;5052349;28;20029;-72
2021/03/19 08:12:13;;;;;;;18.05;10.68;;;4.90;92.70;;;;;;5073792;28;20161;-72
2021/03/19 08:14:57;;;;;;;18.77;10.65;;;4.90;92.70;;;;;;5057936;28;20075;-72
2021/03/19 08:17:27;;;;;;;19.08;11.13;;;4.90;92.70;;;;;;5052757;28;20079;-73
2021/03/19 08:20:16;;;;;;;18.67;11.55;;;5.00;92.60;;;;;;5057870;28;20396;-73
2021/03/19 08:23:35;;;;;;;21.33;11.23;;;5.00;92.40;;;;;;5057313;28;20040;-72
2021/03/19 08:26:00;;;;;;;16.17;9.98;;;5.00;92.30;;;;;;4958845;28;20026;-72
2021/03/19 08:28:53;;;;;;;16.83;10.40;;;5.10;92.20;;;;;;4971976;28;20037;-72
2021/03/19 08:31:53;;;;;;;15.45;10.30;;;4.90;92.00;;;;;;5014148;28;20042;-72
2021/03/19 08:34:23;;;;;;;16.48;10.10;;;5.00;92.30;;;;;;5061865;28;20061;-73
2021/03/19 08:36:52;;;;;;;18.73;9.48;;;5.00;92.10;;;;;;5048721;28;20030;-72
2021/03/19 08:39:43;;;;;;;16.40;9.75;;;5.00;92.50;;;;;;5050111;28;20033;-73
2021/03/19 08:42:38;;;;;;;17.77;10.07;;;4.90;92.40;;;;;;5051133;28;20536;-72
2021/03/19 08:45:07;;;;;;;19.05;9.80;;;4.80;92.40;;;;;;5051849;28;20033;-72
2021/03/19 08:47:40;;;;;;;20.98;10.63;;;4.90;92.80;;;;;;5045396;28;20104;-73
2021/03/19 08:50:33;;;;;;;15.00;8.82;;;4.90;93.00;;;;;;5050434;28;20477;-69
2021/03/19 08:53:13;;;;;;;15.27;8.50;;;4.80;93.30;;;;;;5052212;28;20028;-73
2021/03/19 08:55:41;;;;;;;14.68;8.48;;;4.70;93.20;;;;;;5051431;28;20040;-70
2021/03/19 08:58:25;;;;;;;14.52;8.43;;;4.70;93.30;;;;;;5052610;28;20049;-69
2021/03/19 09:00:54;;;;;;;13.05;7.63;;;4.50;93.70;;;;;;5063702;28;20068;-69
2021/03/19 09:03:39;;;;;;;18.20;8.20;;;4.50;93.80;;;;;;5072887;28;20112;-70
2021/03/19 09:06:04;;;;;;;14.02;7.97;;;4.40;93.90;;;;;;5050004;28;20123;-70
2021/03/19 09:08:57;;;;;;;16.92;8.50;;;4.40;94.00;;;;;;5051638;28;20559;-69
2021/03/19 09:11:38;;;;;;;14.00;8.45;;;4.40;94.40;;;;;;5049319;28;20485;-70
2021/03/19 09:14:03;;;;;;;14.98;9.00;;;4.40;94.50;;;;;;5049789;28;20029;-70
2021/03/19 09:16:57;;;;;;;14.85;8.35;;;4.40;94.60;;;;;;5072030;28;20020;-70
2021/03/19 09:19:31;;;;;;;15.68;8.65;;;4.50;94.70;;;;;;5066576;28;20060;-70
2021/03/19 09:22:28;;;;;;;13.77;8.20;;;4.50;95.00;;;;;;5061025;28;20040;-70
2021/03/19 09:25:09;;;;;;;13.68;8.60;;;4.70;94.80;;;;;;5051271;28;20040;-70
2021/03/19 09:27:55;;;;;;;15.38;9.73;;;4.80;94.70;;;;;;5052695;28;20061;-70
2021/03/19 09:30:21;;;;;;;15.70;8.52;;;4.80;94.40;;;;;;5049545;28;20477;-69
2021/03/19 09:32:52;;;;;;;13.13;7.80;;;4.90;94.60;;;;;;5052610;28;20094;-69
2021/03/19 09:35:43;;;;;;;17.55;9.75;;;5.00;94.60;;;;;;5049327;28;20075;-70
2021/03/19 09:38:24;;;;;;;15.35;8.18;;;4.90;94.60;;;;;;5050999;28;20063;-70
2021/03/19 09:41:00;;;;;;;14.25;7.50;;;4.90;94.60;;;;;;5050281;28;20048;-70
2021/03/19 09:43:32;;;;;;;12.50;6.97;;;5.00;94.50;;;;;;5037145;28;20032;-69
2021/03/19 09:46:04;;;;;;;13.07;7.25;;;5.00;94.30;;;;;;5047478;28;20074;-69
2021/03/19 09:48:33;;;;;;;10.23;6.40;;;5.00;94.50;;;;;;5049687;28;20480;-69
2021/03/19 09:51:03;;;;;;;11.75;6.38;;;5.00;94.60;;;;;;5051392;28;20056;-69
2021/03/19 09:53:33;;;;;;;11.63;6.47;;;4.90;94.60;;;;;;5052154;28;20032;-69
2021/03/19 09:56:15;;;;;;;7.82;5.32;;;5.00;94.90;;;;;;5051504;28;20017;-68
2021/03/19 09:58:44;;;;;;;7.25;4.75;;;5.00;94.30;;;;;;5049975;28;20067;-69
2021/03/19 10:01:13;;;;;;;9.95;5.78;;;4.90;93.90;;;;;;5049772;28;20037;-68
2021/03/19 10:03:48;;;;;;;8.02;5.20;;;4.80;94.30;;;;;;5049795;28;20516;-69
2021/03/19 10:06:26;;;;;;;10.05;5.05;;;4.80;94.40;;;;;;5047261;28;20036;-68
2021/03/19 10:09:27;;;;;;;8.57;4.90;;;4.80;94.60;;;;;;5050397;28;20116;-70
2021/03/19 10:11:59;;;;;;;8.18;4.93;;;4.80;94.70;;;;;;5060102;28;20047;-69
2021/03/19 10:14:34;;;;;;;7.50;4.55;;;4.80;94.60;;;;;;5054640;28;20037;-68
2021/03/19 10:17:12;;;;;;;;;;;4.80;94.60;;;;;;5047268;28;20112;-69
2021/03/19 10:19:40;;;;;;;9.27;4.47;;;4.80;94.50;;;;;;5048539;28;20007;-68
2021/03/19 10:22:08;;;;;;;6.95;4.40;;;4.70;94.40;;;;;;5050708;28;20083;-68
2021/03/19 10:24:33;;;;;;;7.10;4.68;;;4.70;94.60;;;;;;5050343;28;20029;-68
2021/03/19 10:27:02;;;;;;;7.38;4.22;;;4.70;94.50;;;;;;5050435;28;20039;-68
2021/03/19 10:29:36;;;;;;;8.43;5.07;;;4.70;94.50;;;;;;5050986;28;20075;-69
2021/03/19 10:32:18;;;;;;;8.68;4.22;;;4.70;94.50;;;;;;5049971;28;20501;-69
2021/03/19 10:34:49;;;;;;;6.50;4.28;;;4.70;94.70;;;;;;5050477;28;20082;-69
2021/03/19 10:37:33;;;;;;;9.90;4.75;;;4.70;94.90;;;;;;5051215;28;20036;-69
2021/03/19 10:40:15;;;;;;;7.83;4.37;;;4.60;95.00;;;;;;5043244;28;20131;-68
2021/03/19 10:42:48;;;;;;;7.68;3.97;;;4.60;95.10;;;;;;5049993;28;20318;-69
2021/03/19 10:45:42;;;;;;;8.90;3.55;;;4.60;95.40;;;;;;5050509;28;20032;-69
2021/03/19 10:48:17;;;;;;;6.60;3.72;;;4.60;95.20;;;;;;5048844;28;20456;-68
2021/03/19 10:51:03;;;;;;;6.88;3.60;;;4.70;95.00;;;;;;5049625;28;20025;-69
2021/03/19 10:53:39;;;;;;;6.20;3.40;;;4.80;94.90;;;;;;5049880;28;20056;-68
2021/03/19 10:56:04;;;;;;;5.80;3.58;;;4.90;93.90;;;;;;5050058;28;20071;-69
2021/03/19 10:58:37;;;;;;;8.10;3.65;;;5.10;93.60;;;;;;5048053;28;20049;-69
2021/03/19 11:01:28;;;;;;;6.40;3.38;;;5.20;93.10;;;;;;5050757;28;20091;-68
2021/03/19 11:03:54;;;;;;;6.60;2.60;;;5.20;91.10;;;;;;5049143;28;20037;-69
2021/03/19 11:06:32;;;;;;;5.10;3.30;;;5.20;91.50;;;;;;5049436;28;20096;-69
2021/03/19 11:09:27;;;;;;;5.60;3.15;;;5.20;91.80;;;;;;5057389;28;20028;-70
2021/03/19 11:11:59;;;;;;;5.47;2.40;;;5.20;91.80;;;;;;5049167;28;20052;-69
2021/03/19 11:14:27;;;;;;;15.27;3.00;;;5.10;91.60;;;;;;5050481;28;20083;-69
2021/03/19 11:16:56;;;;;;;6.15;2.83;;;5.00;91.90;;;;;;5049525;28;20033;-69
2021/03/19 11:19:27;;;;;;;6.78;3.33;;;5.00;91.00;;;;;;5049768;28;20507;-68
2021/03/19 11:22:04;;;;;;;5.95;2.90;;;5.00;91.40;;;;;;5046161;28;20033;-69
2021/03/19 11:24:35;;;;;;;5.25;3.00;;;5.20;91.20;;;;;;5036593;28;20484;-71
2021/03/19 11:27:21;;;;;;;6.53;3.15;;;5.40;91.50;;;;;;5049682;28;20094;-69
2021/03/19 11:29:47;;;;;;;5.55;2.70;;;5.60;89.50;;;;;;5049462;28;20122;-69
2021/03/19 11:32:13;;;;;;;5.65;2.53;;;5.50;89.10;;;;;;5049514;28;20056;-68
2021/03/19 11:34:46;;;;;;;4.88;2.30;;;5.50;87.40;;;;;;5046080;28;20469;-69
2021/03/19 11:37:27;;;;;;;6.60;2.15;;;5.50;88.10;;;;;;5056325;28;20040;-72
2021/03/19 11:40:24;;;;;;;3.65;2.13;;;5.60;88.00;;;;;;5037912;28;20028;-68
2021/03/19 11:42:52;;;;;;;3.78;1.95;;;5.50;82.80;;;;;;5052118;28;20048;-69
2021/03/19 11:45:28;;;;;;;6.07;2.08;;;5.40;80.90;;;;;;5051634;28;20119;-68
2021/03/19 11:48:00;;;;;;;4.30;1.85;;;5.40;81.20;;;;;;5044950;28;20052;-70
2021/03/19 11:50:31;;;;;;;4.22;1.70;;;5.50;82.50;;;;;;5057028;28;20127;-68
2021/03/19 11:53:01;;;;;;;5.25;2.03;;;5.60;79.60;;;;;;5053793;28;20165;-71
2021/03/19 11:55:33;;;;;;;4.95;2.47;;;5.60;78.80;;;;;;5046013;28;20025;-74
2021/03/19 11:57:59;;;;;;;3.63;1.80;;;5.60;76.80;;;;;;5043878;28;20052;-72
2021/03/19 12:00:29;;;;;;;5.07;2.10;;;5.50;75.30;;;;;;5058060;28;20548;-72
2021/03/19 12:02:57;;;;;;;6.13;2.50;;;5.40;75.90;;;;;;5052822;28;20486;-69
2021/03/19 12:05:23;;;;;;;4.93;2.10;;;5.40;76.30;;;;;;5051921;28;20107;-72
2021/03/19 12:07:49;;;;;;;4.20;1.70;;;5.50;76.70;;;;;;5056647;28;20031;-74
2021/03/19 12:10:18;;;;;;;4.70;2.33;;;5.50;77.80;;;;;;5052586;28;20560;-72
2021/03/19 12:12:44;;;;;;;4.43;2.17;;;5.60;75.70;;;;;;5048385;28;20033;-71
2021/03/19 12:15:13;;;;;;;6.28;2.25;;;5.60;73.60;;;;;;5050407;28;20093;-74
2021/03/19 12:17:38;;;;;;;3.83;1.75;;;5.40;74.40;;;;;;5050702;28;20055;-74
2021/03/19 12:20:05;;;;;;;4.03;1.90;;;5.50;74.60;;;;;;5058639;28;20036;-74
2021/03/19 12:22:31;;;;;;;4.88;1.80;;;5.60;73.80;;;;;;5065438;28;20362;-72
2021/03/19 12:24:56;;;;;;;3.53;1.75;;;5.60;71.70;;;;;;5050151;28;20021;-76
2021/03/19 12:27:23;;;;;;;6.03;2.55;;;5.70;70.40;;;;;;5050991;28;20032;-73
2021/03/19 12:29:49;;;;;;;3.65;2.03;;;5.70;69.10;;;;;;5035891;28;20029;-70
2021/03/19 12:32:15;;;;;;;5.53;2.25;;;5.70;70.20;;;;;;5052699;28;20447;-73
2021/03/19 12:34:41;;;;;;;2.53;1.70;;;5.70;70.90;;;;;;5051393;28;20115;-73
2021/03/19 12:37:07;;;;;;;4.55;1.80;;;5.70;68.90;;;;;;5050435;28;20164;-72
2021/03/19 12:39:32;;;;;;;2.03;1.40;;;5.60;69.30;;;;;;5047913;28;20024;-73
2021/03/19 12:41:58;;;;;;;3.92;1.70;;;5.60;69.20;;;;;;5058846;28;20404;-72
2021/03/19 12:44:23;;;;;;;4.03;1.40;;;5.60;70.80;;;;;;5051893;28;20021;-73
2021/03/19 12:46:50;;;;;;;3.20;1.70;;;5.60;69.90;;;;;;5056541;28;20029;-73
2021/03/19 12:49:16;;;;;;;2.95;1.60;;;5.70;70.50;;;;;;5049174;28;20366;-73
2021/03/19 12:51:41;;;;;;;13.23;3.80;;;5.80;66.10;;;;;;5051940;28;20083;-73
2021/03/19 12:54:07;;;;;;;2.88;1.77;;;5.80;65.90;;;;;;5050753;28;20029;-72
2021/03/19 12:56:33;;;;;;;4.80;2.25;;;5.80;64.40;;;;;;5052906;28;20033;-72
2021/03/19 12:58:59;;;;;;;4.63;2.00;;;5.70;65.80;;;;;;5034729;28;20045;-72
2021/03/19 13:01:25;;;;;;;3.17;1.80;;;5.80;64.80;;;;;;5040843;28;20052;-73
2021/03/19 13:03:51;;;;;;;3.63;1.40;;;5.90;66.40;;;;;;5049977;28;20029;-72
2021/03/19 13:06:21;;;;;;;5.53;1.40;;;5.90;63.20;;;;;;5050520;28;20064;-73
2021/03/19 13:08:47;;;;;;;3.85;1.80;;;5.90;64.20;;;;;;5041268;28;20112;-73
2021/03/19 13:11:13;;;;;;;3.60;1.80;;;6.00;64.90;;;;;;5046846;28;20063;-73
2021/03/19 13:13:42;;;;;;;5.45;1.80;;;6.10;65.80;;;;;;5052365;28;20032;-72
2021/03/19 13:16:08;;;;;;;2.85;1.65;;;6.10;64.30;;;;;;5048957;28;20417;-72
2021/03/19 13:18:34;;;;;;;5.38;2.00;;;6.10;64.00;;;;;;5068428;28;20028;-73
2021/03/19 13:21:00;;;;;;;4.50;2.03;;;6.20;63.80;;;;;;5055879;28;20402;-73